sensor_id;sensor_type;location;lat;lon;timestamp;P1;durP1;ratioP1;P2;durP2;ratioP2
55136;SDS011;41032;47.818;-3.732;2023-02-28T00:01:31;251.43;;;183.45;;
55136;SDS011;41032;47.818;-3.732;2023-02-28T00:03:59;251.27;;;179.05;;
55136;SDS011;41032;47.818;-3.732;2023-02-28T00:06:28;252.77;;;178.45;;
55136;SDS011;41032;47.818;-3.732;2023-02-28T00:08:56;262.63;;;187.45;;
55136;SDS011;41032;47.818;-3.732;2023-02-28T00:11:26;259.02;;;181.23;;
55136;SDS011;41032;47.818;-3.732;2023-02-28T00:13:54;259.63;;;182.07;;
55136;SDS011;41032;47.818;-3.732;2023-02-28T00:16:23;266.80;;;187.20;;
55136;SDS011;41032;47.818;-3.732;2023-02-28T00:18:51;268.45;;;190.27;;
55136;SDS011;41032;47.818;-3.732;2023-02-28T00:21:20;260.42;;;186.85;;
55136;SDS011;41032;47.818;-3.732;2023-02-28T00:23:49;263.35;;;185.20;;
55136;SDS011;41032;47.818;-3.732;2023-02-28T00:26:17;268.75;;;190.77;;
55136;SDS011;41032;47.818;-3.732;2023-02-28T00:28:46;262.30;;;184.77;;
55136;SDS011;41032;47.818;-3.732;2023-02-28T00:31:15;273.77;;;190.40;;
55136;SDS011;41032;47.818;-3.732;2023-02-28T00:33:43;271.63;;;188.07;;
55136;SDS011;41032;47.818;-3.732;2023-02-28T00:36:13;272.35;;;190.90;;
55136;SDS011;41032;47.818;-3.732;2023-02-28T00:38:41;268.58;;;191.07;;
55136;SDS011;41032;47.818;-3.732;2023-02-28T00:41:10;268.58;;;187.68;;
55136;SDS011;41032;47.818;-3.732;2023-02-28T00:43:38;259.35;;;187.60;;
55136;SDS011;41032;47.818;-3.732;2023-02-28T00:46:07;266.35;;;187.73;;
55136;SDS011;41032;47.818;-3.732;2023-02-28T00:48:35;258.75;;;184.82;;
55136;SDS011;41032;47.818;-3.732;2023-02-28T00:51:05;263.02;;;191.48;;
55136;SDS011;41032;47.818;-3.732;2023-02-28T00:53:33;263.92;;;187.30;;
55136;SDS011;41032;47.818;-3.732;2023-02-28T00:56:01;262.65;;;185.60;;
55136;SDS011;41032;47.818;-3.732;2023-02-28T00:58:30;266.23;;;189.80;;
55136;SDS011;41032;47.818;-3.732;2023-02-28T01:00:58;261.92;;;188.93;;
55136;SDS011;41032;47.818;-3.732;2023-02-28T01:03:26;267.08;;;187.85;;
55136;SDS011;41032;47.818;-3.732;2023-02-28T01:05:54;277.55;;;194.13;;
55136;SDS011;41032;47.818;-3.732;2023-02-28T01:08:23;270.27;;;188.38;;
55136;SDS011;41032;47.818;-3.732;2023-02-28T01:10:52;262.33;;;188.82;;
55136;SDS011;41032;47.818;-3.732;2023-02-28T01:13:20;265.60;;;192.05;;
55136;SDS011;41032;47.818;-3.732;2023-02-28T01:15:50;269.50;;;194.98;;
55136;SDS011;41032;47.818;-3.732;2023-02-28T01:18:20;273.98;;;192.43;;
55136;SDS011;41032;47.818;-3.732;2023-02-28T01:20:48;271.92;;;190.27;;
55136;SDS011;41032;47.818;-3.732;2023-02-28T01:23:18;261.17;;;187.40;;
55136;SDS011;41032;47.818;-3.732;2023-02-28T01:25:49;268.25;;;191.40;;
55136;SDS011;41032;47.818;-3.732;2023-02-28T01:28:18;271.30;;;189.43;;
55136;SDS011;41032;47.818;-3.732;2023-02-28T01:30:48;267.50;;;189.60;;
55136;SDS011;41032;47.818;-3.732;2023-02-28T01:33:17;274.63;;;193.80;;
55136;SDS011;41032;47.818;-3.732;2023-02-28T01:35:45;269.08;;;194.95;;
55136;SDS011;41032;47.818;-3.732;2023-02-28T01:38:14;276.35;;;196.38;;
55136;SDS011;41032;47.818;-3.732;2023-02-28T01:40:43;256.65;;;188.35;;
55136;SDS011;41032;47.818;-3.732;2023-02-28T01:43:16;276.02;;;194.00;;
55136;SDS011;41032;47.818;-3.732;2023-02-28T01:45:49;262.45;;;185.80;;
55136;SDS011;41032;47.818;-3.732;2023-02-28T01:48:18;265.50;;;184.18;;
55136;SDS011;41032;47.818;-3.732;2023-02-28T01:50:48;265.65;;;189.85;;
55136;SDS011;41032;47.818;-3.732;2023-02-28T01:53:19;270.05;;;191.43;;
55136;SDS011;41032;47.818;-3.732;2023-02-28T01:55:52;261.57;;;189.53;;
55136;SDS011;41032;47.818;-3.732;2023-02-28T01:58:20;265.40;;;189.55;;
55136;SDS011;41032;47.818;-3.732;2023-02-28T02:00:49;277.48;;;198.38;;
55136;SDS011;41032;47.818;-3.732;2023-02-28T02:03:18;286.13;;;197.57;;
55136;SDS011;41032;47.818;-3.732;2023-02-28T02:05:48;259.55;;;184.93;;
55136;SDS011;41032;47.818;-3.732;2023-02-28T02:08:17;274.02;;;195.45;;
55136;SDS011;41032;47.818;-3.732;2023-02-28T02:10:50;271.05;;;190.98;;
55136;SDS011;41032;47.818;-3.732;2023-02-28T02:17:10;264.55;;;186.82;;
55136;SDS011;41032;47.818;-3.732;2023-02-28T02:19:15;268.23;;;192.07;;
55136;SDS011;41032;47.818;-3.732;2023-02-28T02:35:49;264.45;;;191.18;;
55136;SDS011;41032;47.818;-3.732;2023-02-28T02:38:27;271.30;;;196.02;;
55136;SDS011;41032;47.818;-3.732;2023-02-28T02:41:37;266.42;;;195.77;;
55136;SDS011;41032;47.818;-3.732;2023-02-28T02:44:10;253.95;;;181.55;;
55136;SDS011;41032;47.818;-3.732;2023-02-28T02:46:45;273.70;;;192.60;;
55136;SDS011;41032;47.818;-3.732;2023-02-28T02:49:17;268.10;;;191.63;;
55136;SDS011;41032;47.818;-3.732;2023-02-28T02:51:48;270.52;;;194.05;;
55136;SDS011;41032;47.818;-3.732;2023-02-28T02:54:19;281.52;;;194.80;;
55136;SDS011;41032;47.818;-3.732;2023-02-28T02:56:50;269.15;;;192.10;;
55136;SDS011;41032;47.818;-3.732;2023-02-28T02:59:20;267.48;;;189.20;;
55136;SDS011;41032;47.818;-3.732;2023-02-28T03:01:50;262.17;;;190.18;;
55136;SDS011;41032;47.818;-3.732;2023-02-28T03:04:22;261.85;;;183.40;;
55136;SDS011;41032;47.818;-3.732;2023-02-28T03:06:51;267.02;;;187.07;;
55136;SDS011;41032;47.818;-3.732;2023-02-28T03:09:21;253.13;;;187.02;;
55136;SDS011;41032;47.818;-3.732;2023-02-28T03:11:50;254.32;;;183.98;;
55136;SDS011;41032;47.818;-3.732;2023-02-28T03:15:06;254.00;;;181.55;;
55136;SDS011;41032;47.818;-3.732;2023-02-28T03:29:08;230.48;;;162.73;;
55136;SDS011;41032;47.818;-3.732;2023-02-28T03:31:30;209.90;;;150.55;;
55136;SDS011;41032;47.818;-3.732;2023-02-28T03:34:05;220.35;;;156.98;;
55136;SDS011;41032;47.818;-3.732;2023-02-28T03:36:48;220.68;;;155.13;;
55136;SDS011;41032;47.818;-3.732;2023-02-28T03:39:21;210.27;;;151.02;;
55136;SDS011;41032;47.818;-3.732;2023-02-28T03:41:52;218.43;;;153.43;;
55136;SDS011;41032;47.818;-3.732;2023-02-28T03:44:29;207.18;;;146.63;;
55136;SDS011;41032;47.818;-3.732;2023-02-28T03:47:19;204.52;;;145.15;;
55136;SDS011;41032;47.818;-3.732;2023-02-28T03:50:11;196.88;;;138.23;;
55136;SDS011;41032;47.818;-3.732;2023-02-28T03:53:22;194.63;;;141.05;;
55136;SDS011;41032;47.818;-3.732;2023-02-28T03:55:56;209.63;;;147.85;;
55136;SDS011;41032;47.818;-3.732;2023-02-28T03:58:55;202.55;;;141.15;;
55136;SDS011;41032;47.818;-3.732;2023-02-28T04:01:30;202.77;;;142.95;;
55136;SDS011;41032;47.818;-3.732;2023-02-28T04:04:10;193.35;;;138.65;;
55136;SDS011;41032;47.818;-3.732;2023-02-28T04:06:39;188.88;;;136.55;;
55136;SDS011;41032;47.818;-3.732;2023-02-28T04:09:09;189.82;;;134.05;;
55136;SDS011;41032;47.818;-3.732;2023-02-28T04:11:40;192.40;;;133.90;;
55136;SDS011;41032;47.818;-3.732;2023-02-28T04:14:10;186.60;;;131.48;;
55136;SDS011;41032;47.818;-3.732;2023-02-28T04:16:40;187.38;;;131.85;;
55136;SDS011;41032;47.818;-3.732;2023-02-28T04:19:10;189.38;;;129.30;;
55136;SDS011;41032;47.818;-3.732;2023-02-28T04:21:39;195.00;;;129.80;;
55136;SDS011;41032;47.818;-3.732;2023-02-28T04:24:10;179.70;;;126.60;;
55136;SDS011;41032;47.818;-3.732;2023-02-28T04:26:42;174.85;;;125.28;;
55136;SDS011;41032;47.818;-3.732;2023-02-28T04:29:12;179.30;;;128.65;;
55136;SDS011;41032;47.818;-3.732;2023-02-28T04:31:42;177.65;;;124.75;;
55136;SDS011;41032;47.818;-3.732;2023-02-28T04:34:10;181.27;;;127.05;;
55136;SDS011;41032;47.818;-3.732;2023-02-28T04:36:39;177.55;;;123.15;;
55136;SDS011;41032;47.818;-3.732;2023-02-28T04:39:08;162.00;;;118.05;;
55136;SDS011;41032;47.818;-3.732;2023-02-28T04:41:36;171.10;;;116.90;;
55136;SDS011;41032;47.818;-3.732;2023-02-28T04:44:05;160.45;;;110.85;;
55136;SDS011;41032;47.818;-3.732;2023-02-28T04:46:33;152.90;;;108.57;;
55136;SDS011;41032;47.818;-3.732;2023-02-28T04:49:02;145.93;;;102.65;;
55136;SDS011;41032;47.818;-3.732;2023-02-28T04:51:31;145.60;;;101.65;;
55136;SDS011;41032;47.818;-3.732;2023-02-28T04:53:59;143.20;;;97.72;;
55136;SDS011;41032;47.818;-3.732;2023-02-28T04:56:28;128.05;;;90.97;;
55136;SDS011;41032;47.818;-3.732;2023-02-28T04:58:57;128.43;;;91.63;;
55136;SDS011;41032;47.818;-3.732;2023-02-28T05:01:27;121.32;;;86.30;;
55136;SDS011;41032;47.818;-3.732;2023-02-28T05:03:58;119.45;;;83.72;;
55136;SDS011;41032;47.818;-3.732;2023-02-28T05:06:27;119.05;;;82.70;;
55136;SDS011;41032;47.818;-3.732;2023-02-28T05:08:57;112.00;;;82.25;;
55136;SDS011;41032;47.818;-3.732;2023-02-28T05:11:26;99.78;;;73.72;;
55136;SDS011;41032;47.818;-3.732;2023-02-28T05:13:59;106.88;;;76.00;;
55136;SDS011;41032;47.818;-3.732;2023-02-28T05:16:29;102.15;;;74.82;;
55136;SDS011;41032;47.818;-3.732;2023-02-28T05:18:57;104.85;;;73.22;;
55136;SDS011;41032;47.818;-3.732;2023-02-28T05:21:35;99.65;;;68.22;;
55136;SDS011;41032;47.818;-3.732;2023-02-28T05:24:07;99.50;;;69.50;;
55136;SDS011;41032;47.818;-3.732;2023-02-28T05:26:39;97.18;;;66.60;;
55136;SDS011;41032;47.818;-3.732;2023-02-28T05:29:08;91.57;;;63.75;;
55136;SDS011;41032;47.818;-3.732;2023-02-28T05:31:38;94.53;;;63.13;;
55136;SDS011;41032;47.818;-3.732;2023-02-28T05:34:06;89.97;;;63.30;;
55136;SDS011;41032;47.818;-3.732;2023-02-28T05:36:37;89.68;;;61.83;;
55136;SDS011;41032;47.818;-3.732;2023-02-28T05:39:06;84.78;;;58.50;;
55136;SDS011;41032;47.818;-3.732;2023-02-28T05:41:40;86.72;;;59.53;;
55136;SDS011;41032;47.818;-3.732;2023-02-28T05:44:08;78.13;;;56.45;;
55136;SDS011;41032;47.818;-3.732;2023-02-28T05:46:38;78.25;;;56.22;;
55136;SDS011;41032;47.818;-3.732;2023-02-28T05:49:06;72.05;;;53.42;;
55136;SDS011;41032;47.818;-3.732;2023-02-28T05:51:34;75.10;;;52.67;;
55136;SDS011;41032;47.818;-3.732;2023-02-28T05:54:05;75.05;;;53.58;;
55136;SDS011;41032;47.818;-3.732;2023-02-28T05:56:34;74.97;;;53.90;;
55136;SDS011;41032;47.818;-3.732;2023-02-28T05:59:04;67.47;;;48.08;;
55136;SDS011;41032;47.818;-3.732;2023-02-28T06:01:35;71.28;;;51.13;;
55136;SDS011;41032;47.818;-3.732;2023-02-28T06:04:06;69.28;;;49.70;;
55136;SDS011;41032;47.818;-3.732;2023-02-28T06:06:36;72.18;;;48.00;;
55136;SDS011;41032;47.818;-3.732;2023-02-28T06:09:05;72.53;;;48.55;;
55136;SDS011;41032;47.818;-3.732;2023-02-28T06:11:34;67.65;;;48.60;;
55136;SDS011;41032;47.818;-3.732;2023-02-28T06:14:02;70.20;;;48.28;;
55136;SDS011;41032;47.818;-3.732;2023-02-28T06:16:32;66.65;;;46.78;;
55136;SDS011;41032;47.818;-3.732;2023-02-28T06:19:02;68.68;;;47.60;;
55136;SDS011;41032;47.818;-3.732;2023-02-28T06:21:31;65.25;;;44.42;;
55136;SDS011;41032;47.818;-3.732;2023-02-28T06:24:00;67.78;;;46.30;;
55136;SDS011;41032;47.818;-3.732;2023-02-28T06:26:29;65.65;;;45.42;;
55136;SDS011;41032;47.818;-3.732;2023-02-28T06:28:58;63.20;;;44.92;;
55136;SDS011;41032;47.818;-3.732;2023-02-28T06:31:26;61.72;;;43.63;;
55136;SDS011;41032;47.818;-3.732;2023-02-28T06:33:55;62.72;;;43.78;;
55136;SDS011;41032;47.818;-3.732;2023-02-28T06:36:24;62.03;;;42.15;;
55136;SDS011;41032;47.818;-3.732;2023-02-28T06:38:52;57.95;;;41.90;;
55136;SDS011;41032;47.818;-3.732;2023-02-28T06:41:23;59.47;;;40.13;;
55136;SDS011;41032;47.818;-3.732;2023-02-28T06:43:53;63.10;;;42.30;;
55136;SDS011;41032;47.818;-3.732;2023-02-28T06:46:22;59.35;;;41.05;;
55136;SDS011;41032;47.818;-3.732;2023-02-28T06:48:50;53.70;;;38.65;;
55136;SDS011;41032;47.818;-3.732;2023-02-28T06:51:19;54.22;;;39.10;;
55136;SDS011;41032;47.818;-3.732;2023-02-28T06:53:48;60.22;;;41.10;;
55136;SDS011;41032;47.818;-3.732;2023-02-28T06:56:17;55.50;;;39.10;;
55136;SDS011;41032;47.818;-3.732;2023-02-28T06:58:47;57.38;;;39.70;;
55136;SDS011;41032;47.818;-3.732;2023-02-28T07:01:16;53.83;;;38.10;;
55136;SDS011;41032;47.818;-3.732;2023-02-28T07:03:45;53.75;;;38.85;;
55136;SDS011;41032;47.818;-3.732;2023-02-28T07:06:18;59.80;;;38.88;;
55136;SDS011;41032;47.818;-3.732;2023-02-28T07:08:48;52.35;;;38.65;;
55136;SDS011;41032;47.818;-3.732;2023-02-28T07:11:20;54.58;;;38.42;;
55136;SDS011;41032;47.818;-3.732;2023-02-28T07:13:51;55.72;;;38.17;;
55136;SDS011;41032;47.818;-3.732;2023-02-28T07:16:21;53.90;;;37.63;;
55136;SDS011;41032;47.818;-3.732;2023-02-28T07:18:52;57.05;;;40.55;;
55136;SDS011;41032;47.818;-3.732;2023-02-28T07:21:21;49.53;;;34.45;;
55136;SDS011;41032;47.818;-3.732;2023-02-28T07:23:49;50.72;;;36.17;;
55136;SDS011;41032;47.818;-3.732;2023-02-28T07:26:18;56.50;;;36.58;;
55136;SDS011;41032;47.818;-3.732;2023-02-28T07:28:47;47.72;;;33.85;;
55136;SDS011;41032;47.818;-3.732;2023-02-28T07:31:16;50.55;;;34.72;;
55136;SDS011;41032;47.818;-3.732;2023-02-28T07:33:45;53.15;;;35.70;;
55136;SDS011;41032;47.818;-3.732;2023-02-28T07:36:15;51.85;;;35.05;;
55136;SDS011;41032;47.818;-3.732;2023-02-28T07:38:45;50.03;;;35.67;;
55136;SDS011;41032;47.818;-3.732;2023-02-28T07:41:16;50.83;;;35.20;;
55136;SDS011;41032;47.818;-3.732;2023-02-28T07:43:45;52.60;;;32.22;;
55136;SDS011;41032;47.818;-3.732;2023-02-28T07:46:14;48.90;;;32.88;;
55136;SDS011;41032;47.818;-3.732;2023-02-28T07:48:44;45.78;;;31.48;;
55136;SDS011;41032;47.818;-3.732;2023-02-28T07:51:14;46.60;;;31.90;;
55136;SDS011;41032;47.818;-3.732;2023-02-28T07:53:41;40.78;;;29.92;;
55136;SDS011;41032;47.818;-3.732;2023-02-28T07:56:10;48.13;;;31.58;;
55136;SDS011;41032;47.818;-3.732;2023-02-28T07:58:38;46.00;;;31.85;;
55136;SDS011;41032;47.818;-3.732;2023-02-28T08:01:08;44.53;;;29.98;;
55136;SDS011;41032;47.818;-3.732;2023-02-28T08:03:37;43.10;;;29.08;;
55136;SDS011;41032;47.818;-3.732;2023-02-28T08:06:06;45.97;;;28.42;;
55136;SDS011;41032;47.818;-3.732;2023-02-28T08:08:35;42.20;;;29.05;;
55136;SDS011;41032;47.818;-3.732;2023-02-28T08:11:04;38.90;;;26.27;;
55136;SDS011;41032;47.818;-3.732;2023-02-28T08:13:32;43.15;;;28.52;;
55136;SDS011;41032;47.818;-3.732;2023-02-28T08:16:01;41.17;;;26.88;;
55136;SDS011;41032;47.818;-3.732;2023-02-28T08:18:30;34.70;;;24.95;;
55136;SDS011;41032;47.818;-3.732;2023-02-28T08:20:59;37.53;;;24.60;;
55136;SDS011;41032;47.818;-3.732;2023-02-28T08:23:32;41.25;;;26.58;;
55136;SDS011;41032;47.818;-3.732;2023-02-28T08:26:01;39.70;;;25.90;;
55136;SDS011;41032;47.818;-3.732;2023-02-28T08:28:29;35.60;;;24.88;;
55136;SDS011;41032;47.818;-3.732;2023-02-28T08:30:58;34.78;;;24.08;;
55136;SDS011;41032;47.818;-3.732;2023-02-28T08:33:26;35.60;;;23.38;;
55136;SDS011;41032;47.818;-3.732;2023-02-28T08:35:55;33.65;;;23.48;;
55136;SDS011;41032;47.818;-3.732;2023-02-28T08:38:23;32.08;;;24.40;;
55136;SDS011;41032;47.818;-3.732;2023-02-28T08:41:02;31.65;;;22.95;;
55136;SDS011;41032;47.818;-3.732;2023-02-28T08:43:33;33.03;;;23.25;;
55136;SDS011;41032;47.818;-3.732;2023-02-28T08:46:02;31.23;;;22.90;;
55136;SDS011;41032;47.818;-3.732;2023-02-28T08:48:31;32.90;;;22.98;;
55136;SDS011;41032;47.818;-3.732;2023-02-28T08:51:02;33.55;;;23.35;;
55136;SDS011;41032;47.818;-3.732;2023-02-28T08:53:32;33.88;;;23.88;;
55136;SDS011;41032;47.818;-3.732;2023-02-28T08:56:03;31.05;;;21.98;;
55136;SDS011;41032;47.818;-3.732;2023-02-28T08:58:34;33.92;;;22.30;;
55136;SDS011;41032;47.818;-3.732;2023-02-28T09:01:21;29.75;;;21.27;;
55136;SDS011;41032;47.818;-3.732;2023-02-28T09:03:53;31.35;;;21.85;;
55136;SDS011;41032;47.818;-3.732;2023-02-28T09:06:23;31.05;;;20.65;;
55136;SDS011;41032;47.818;-3.732;2023-02-28T09:08:52;32.05;;;20.48;;
55136;SDS011;41032;47.818;-3.732;2023-02-28T09:11:24;36.70;;;21.35;;
55136;SDS011;41032;47.818;-3.732;2023-02-28T09:13:52;27.63;;;18.63;;
55136;SDS011;41032;47.818;-3.732;2023-02-28T09:16:21;26.60;;;19.27;;
55136;SDS011;41032;47.818;-3.732;2023-02-28T09:18:50;24.45;;;17.80;;
55136;SDS011;41032;47.818;-3.732;2023-02-28T09:21:19;24.52;;;18.08;;
55136;SDS011;41032;47.818;-3.732;2023-02-28T09:23:48;30.60;;;19.30;;
55136;SDS011;41032;47.818;-3.732;2023-02-28T09:26:17;25.50;;;18.55;;
55136;SDS011;41032;47.818;-3.732;2023-02-28T09:28:48;28.38;;;19.23;;
55136;SDS011;41032;47.818;-3.732;2023-02-28T09:31:18;29.15;;;18.35;;
55136;SDS011;41032;47.818;-3.732;2023-02-28T09:33:50;27.95;;;19.42;;
55136;SDS011;41032;47.818;-3.732;2023-02-28T09:36:20;24.08;;;17.60;;
55136;SDS011;41032;47.818;-3.732;2023-02-28T09:38:49;24.80;;;17.77;;
55136;SDS011;41032;47.818;-3.732;2023-02-28T09:41:23;32.40;;;21.02;;
55136;SDS011;41032;47.818;-3.732;2023-02-28T09:43:55;33.15;;;20.73;;
55136;SDS011;41032;47.818;-3.732;2023-02-28T09:48:58;27.85;;;20.40;;
55136;SDS011;41032;47.818;-3.732;2023-02-28T09:52:09;26.38;;;19.23;;
55136;SDS011;41032;47.818;-3.732;2023-02-28T09:54:23;25.00;;;19.00;;
55136;SDS011;41032;47.818;-3.732;2023-02-28T09:59:25;26.58;;;19.70;;
55136;SDS011;41032;47.818;-3.732;2023-02-28T10:02:19;25.48;;;18.33;;
55136;SDS011;41032;47.818;-3.732;2023-02-28T10:05:08;26.48;;;19.00;;
55136;SDS011;41032;47.818;-3.732;2023-02-28T10:07:46;30.70;;;19.80;;
55136;SDS011;41032;47.818;-3.732;2023-02-28T10:10:24;30.50;;;20.77;;
55136;SDS011;41032;47.818;-3.732;2023-02-28T10:12:55;29.58;;;21.55;;
55136;SDS011;41032;47.818;-3.732;2023-02-28T10:15:26;28.10;;;20.27;;
55136;SDS011;41032;47.818;-3.732;2023-02-28T10:17:58;29.35;;;20.63;;
55136;SDS011;41032;47.818;-3.732;2023-02-28T10:20:31;27.88;;;20.70;;
55136;SDS011;41032;47.818;-3.732;2023-02-28T10:23:07;27.88;;;19.58;;
55136;SDS011;41032;47.818;-3.732;2023-02-28T10:25:39;30.58;;;20.92;;
55136;SDS011;41032;47.818;-3.732;2023-02-28T10:30:38;28.05;;;20.95;;
55136;SDS011;41032;47.818;-3.732;2023-02-28T10:33:13;31.15;;;20.38;;
55136;SDS011;41032;47.818;-3.732;2023-02-28T10:36:03;28.75;;;20.73;;
55136;SDS011;41032;47.818;-3.732;2023-02-28T10:38:35;29.00;;;20.88;;
55136;SDS011;41032;47.818;-3.732;2023-02-28T10:43:33;31.77;;;20.23;;
55136;SDS011;41032;47.818;-3.732;2023-02-28T10:46:04;25.63;;;19.65;;
55136;SDS011;41032;47.818;-3.732;2023-02-28T10:48:37;29.20;;;21.23;;
55136;SDS011;41032;47.818;-3.732;2023-02-28T10:51:10;29.65;;;21.80;;
55136;SDS011;41032;47.818;-3.732;2023-02-28T10:59:00;29.05;;;21.08;;
55136;SDS011;41032;47.818;-3.732;2023-02-28T11:01:34;27.30;;;20.50;;
55136;SDS011;41032;47.818;-3.732;2023-02-28T11:04:47;27.80;;;20.65;;
55136;SDS011;41032;47.818;-3.732;2023-02-28T11:06:58;32.67;;;24.27;;
55136;SDS011;41032;47.818;-3.732;2023-02-28T11:09:30;35.55;;;22.02;;
55136;SDS011;41032;47.818;-3.732;2023-02-28T11:12:01;29.40;;;22.17;;
55136;SDS011;41032;47.818;-3.732;2023-02-28T11:14:31;34.90;;;23.58;;
55136;SDS011;41032;47.818;-3.732;2023-02-28T11:17:11;30.25;;;21.42;;
55136;SDS011;41032;47.818;-3.732;2023-02-28T11:19:46;30.42;;;22.08;;
55136;SDS011;41032;47.818;-3.732;2023-02-28T11:22:18;26.52;;;19.83;;
55136;SDS011;41032;47.818;-3.732;2023-02-28T11:24:49;31.90;;;22.20;;
55136;SDS011;41032;47.818;-3.732;2023-02-28T11:28:01;25.65;;;20.23;;
55136;SDS011;41032;47.818;-3.732;2023-02-28T11:35:58;32.35;;;20.75;;
55136;SDS011;41032;47.818;-3.732;2023-02-28T11:38:29;26.90;;;20.10;;
55136;SDS011;41032;47.818;-3.732;2023-02-28T11:51:53;30.10;;;19.98;;
55136;SDS011;41032;47.818;-3.732;2023-02-28T11:54:27;28.45;;;20.13;;
55136;SDS011;41032;47.818;-3.732;2023-02-28T11:57:00;30.30;;;20.33;;
55136;SDS011;41032;47.818;-3.732;2023-02-28T11:59:39;29.13;;;19.58;;
55136;SDS011;41032;47.818;-3.732;2023-02-28T12:02:37;30.42;;;20.52;;
55136;SDS011;41032;47.818;-3.732;2023-02-28T12:05:39;31.00;;;20.77;;
55136;SDS011;41032;47.818;-3.732;2023-02-28T12:11:19;26.25;;;18.88;;
55136;SDS011;41032;47.818;-3.732;2023-02-28T12:25:18;25.13;;;17.77;;
55136;SDS011;41032;47.818;-3.732;2023-02-28T12:27:58;28.55;;;19.98;;
55136;SDS011;41032;47.818;-3.732;2023-02-28T12:30:31;28.17;;;19.15;;
55136;SDS011;41032;47.818;-3.732;2023-02-28T12:33:03;29.70;;;20.17;;
55136;SDS011;41032;47.818;-3.732;2023-02-28T12:35:35;26.98;;;19.52;;
55136;SDS011;41032;47.818;-3.732;2023-02-28T12:38:12;25.42;;;18.55;;
55136;SDS011;41032;47.818;-3.732;2023-02-28T12:40:49;24.33;;;19.27;;
55136;SDS011;41032;47.818;-3.732;2023-02-28T12:43:20;28.70;;;20.33;;
55136;SDS011;41032;47.818;-3.732;2023-02-28T12:45:50;29.55;;;21.23;;
55136;SDS011;41032;47.818;-3.732;2023-02-28T12:48:23;31.25;;;21.90;;
55136;SDS011;41032;47.818;-3.732;2023-02-28T12:50:54;27.67;;;19.23;;
55136;SDS011;41032;47.818;-3.732;2023-02-28T12:57:01;29.13;;;20.10;;
55136;SDS011;41032;47.818;-3.732;2023-02-28T13:02:09;29.20;;;20.50;;
55136;SDS011;41032;47.818;-3.732;2023-02-28T13:10:03;27.88;;;19.83;;
55136;SDS011;41032;47.818;-3.732;2023-02-28T13:12:33;26.45;;;19.42;;
55136;SDS011;41032;47.818;-3.732;2023-02-28T13:15:04;30.17;;;20.35;;
55136;SDS011;41032;47.818;-3.732;2023-02-28T13:17:55;29.08;;;20.20;;
55136;SDS011;41032;47.818;-3.732;2023-02-28T13:20:26;29.52;;;20.52;;
55136;SDS011;41032;47.818;-3.732;2023-02-28T13:22:57;28.48;;;21.27;;
55136;SDS011;41032;47.818;-3.732;2023-02-28T13:28:08;30.40;;;20.65;;
55136;SDS011;41032;47.818;-3.732;2023-02-28T13:36:07;29.92;;;20.35;;
55136;SDS011;41032;47.818;-3.732;2023-02-28T13:38:36;26.30;;;19.67;;
55136;SDS011;41032;47.818;-3.732;2023-02-28T13:41:47;25.88;;;18.52;;
55136;SDS011;41032;47.818;-3.732;2023-02-28T13:44:04;26.77;;;20.33;;
55136;SDS011;41032;47.818;-3.732;2023-02-28T13:47:13;31.27;;;21.05;;
55136;SDS011;41032;47.818;-3.732;2023-02-28T14:00:16;25.30;;;20.55;;
55136;SDS011;41032;47.818;-3.732;2023-02-28T14:05:44;26.42;;;18.70;;
55136;SDS011;41032;47.818;-3.732;2023-02-28T14:08:16;26.48;;;18.88;;
55136;SDS011;41032;47.818;-3.732;2023-02-28T14:10:48;30.58;;;19.90;;
55136;SDS011;41032;47.818;-3.732;2023-02-28T14:14:00;29.80;;;19.88;;
55136;SDS011;41032;47.818;-3.732;2023-02-28T14:16:15;29.75;;;21.75;;
55136;SDS011;41032;47.818;-3.732;2023-02-28T14:18:49;26.38;;;18.85;;
55136;SDS011;41032;47.818;-3.732;2023-02-28T14:21:38;25.02;;;19.10;;
55136;SDS011;41032;47.818;-3.732;2023-02-28T14:24:16;29.77;;;20.00;;
55136;SDS011;41032;47.818;-3.732;2023-02-28T14:32:32;28.45;;;21.17;;
55136;SDS011;41032;47.818;-3.732;2023-02-28T14:35:05;28.25;;;20.45;;
55136;SDS011;41032;47.818;-3.732;2023-02-28T14:37:47;30.75;;;22.50;;
55136;SDS011;41032;47.818;-3.732;2023-02-28T14:40:17;32.00;;;22.63;;
55136;SDS011;41032;47.818;-3.732;2023-02-28T14:42:55;34.67;;;22.52;;
55136;SDS011;41032;47.818;-3.732;2023-02-28T14:45:25;30.88;;;21.65;;
55136;SDS011;41032;47.818;-3.732;2023-02-28T14:47:56;30.60;;;22.15;;
55136;SDS011;41032;47.818;-3.732;2023-02-28T14:50:34;30.90;;;23.17;;
55136;SDS011;41032;47.818;-3.732;2023-02-28T14:53:02;30.02;;;21.60;;
55136;SDS011;41032;47.818;-3.732;2023-02-28T14:55:33;35.63;;;22.55;;
55136;SDS011;41032;47.818;-3.732;2023-02-28T14:58:03;31.05;;;21.60;;
55136;SDS011;41032;47.818;-3.732;2023-02-28T15:00:34;33.67;;;22.73;;
55136;SDS011;41032;47.818;-3.732;2023-02-28T15:03:45;34.33;;;25.00;;
55136;SDS011;41032;47.818;-3.732;2023-02-28T15:05:52;37.17;;;24.10;;
55136;SDS011;41032;47.818;-3.732;2023-02-28T15:08:21;37.22;;;26.13;;
55136;SDS011;41032;47.818;-3.732;2023-02-28T15:16:08;31.98;;;22.45;;
55136;SDS011;41032;47.818;-3.732;2023-02-28T15:18:49;31.13;;;22.45;;
55136;SDS011;41032;47.818;-3.732;2023-02-28T15:21:20;34.85;;;23.85;;
55136;SDS011;41032;47.818;-3.732;2023-02-28T15:24:01;31.30;;;22.80;;
55136;SDS011;41032;47.818;-3.732;2023-02-28T15:26:43;31.65;;;24.20;;
55136;SDS011;41032;47.818;-3.732;2023-02-28T15:31:45;33.13;;;23.55;;
55136;SDS011;41032;47.818;-3.732;2023-02-28T15:34:19;32.92;;;24.02;;
55136;SDS011;41032;47.818;-3.732;2023-02-28T15:40:05;31.85;;;23.20;;
55136;SDS011;41032;47.818;-3.732;2023-02-28T15:42:42;31.45;;;23.08;;
55136;SDS011;41032;47.818;-3.732;2023-02-28T15:45:55;32.17;;;23.35;;
55136;SDS011;41032;47.818;-3.732;2023-02-28T15:48:18;29.60;;;22.70;;
55136;SDS011;41032;47.818;-3.732;2023-02-28T15:50:49;29.42;;;22.42;;
55136;SDS011;41032;47.818;-3.732;2023-02-28T15:53:22;33.35;;;23.77;;
55136;SDS011;41032;47.818;-3.732;2023-02-28T15:55:53;32.70;;;22.45;;
55136;SDS011;41032;47.818;-3.732;2023-02-28T15:58:22;33.45;;;23.23;;
55136;SDS011;41032;47.818;-3.732;2023-02-28T16:01:34;28.98;;;21.90;;
55136;SDS011;41032;47.818;-3.732;2023-02-28T16:03:50;32.70;;;23.98;;
55136;SDS011;41032;47.818;-3.732;2023-02-28T16:08:49;36.15;;;24.45;;
55136;SDS011;41032;47.818;-3.732;2023-02-28T16:11:17;33.13;;;23.38;;
55136;SDS011;41032;47.818;-3.732;2023-02-28T16:13:47;31.50;;;22.83;;
55136;SDS011;41032;47.818;-3.732;2023-02-28T16:16:17;36.05;;;23.48;;
55136;SDS011;41032;47.818;-3.732;2023-02-28T16:18:46;38.42;;;26.13;;
55136;SDS011;41032;47.818;-3.732;2023-02-28T16:21:14;33.13;;;23.40;;
55136;SDS011;41032;47.818;-3.732;2023-02-28T16:23:42;31.75;;;23.35;;
55136;SDS011;41032;47.818;-3.732;2023-02-28T16:26:14;35.83;;;23.33;;
55136;SDS011;41032;47.818;-3.732;2023-02-28T16:28:45;30.00;;;22.85;;
55136;SDS011;41032;47.818;-3.732;2023-02-28T16:31:13;35.47;;;23.25;;
55136;SDS011;41032;47.818;-3.732;2023-02-28T16:33:42;39.33;;;26.00;;
55136;SDS011;41032;47.818;-3.732;2023-02-28T16:36:20;35.97;;;25.42;;
55136;SDS011;41032;47.818;-3.732;2023-02-28T16:38:53;37.10;;;26.33;;